createdAt,value
2019-02-27T00:00:21.963Z,4.63
2019-02-27T00:02:53.812Z,4.60
2019-02-27T00:05:24.729Z,3.80
2019-02-27T00:07:55.040Z,4.33
2019-02-27T00:10:25.321Z,4.60
2019-02-27T00:12:55.502Z,4.23
2019-02-27T00:15:26.047Z,4.97
2019-02-27T00:17:56.248Z,3.83
2019-02-27T00:20:26.458Z,4.60
2019-02-27T00:22:56.654Z,4.47
2019-02-27T00:25:27.151Z,4.33
2019-02-27T00:27:57.678Z,5.30
2019-02-27T00:30:28.210Z,4.80
2019-02-27T00:32:58.747Z,4.87
2019-02-27T00:35:29.052Z,4.83
2019-02-27T00:37:59.504Z,4.27
2019-02-27T00:40:30.043Z,4.90
2019-02-27T00:43:00.570Z,5.07
2019-02-27T00:45:30.795Z,4.57
2019-02-27T00:48:00.982Z,4.20
2019-02-27T00:50:31.467Z,3.93
2019-02-27T00:53:01.966Z,3.63
2019-02-27T00:55:32.147Z,3.43
2019-02-27T00:58:02.335Z,3.50
2019-02-27T01:00:32.549Z,3.30
2019-02-27T01:03:02.742Z,4.00
2019-02-27T01:05:33.427Z,3.50
2019-02-27T01:08:03.697Z,3.33
2019-02-27T01:10:33.994Z,3.77
2019-02-27T01:13:04.354Z,3.37
2019-02-27T01:15:34.570Z,3.10
2019-02-27T01:18:04.845Z,3.10
2019-02-27T01:20:35.109Z,3.23
2019-02-27T01:23:05.322Z,3.37
2019-02-27T01:25:35.826Z,3.73
2019-02-27T01:28:06.055Z,3.63
2019-02-27T01:30:36.330Z,3.87
2019-02-27T01:33:06.519Z,3.30
2019-02-27T01:35:36.743Z,3.47
2019-02-27T01:38:06.937Z,2.87
2019-02-27T01:40:37.163Z,3.17
2019-02-27T01:43:07.370Z,3.63
2019-02-27T01:45:37.606Z,3.20
2019-02-27T01:48:09.175Z,3.10
2019-02-27T01:50:40.106Z,3.50
2019-02-27T01:53:10.666Z,2.90
2019-02-27T01:55:41.052Z,3.10
2019-02-27T01:58:11.221Z,3.40
2019-02-27T02:00:41.744Z,3.43
2019-02-27T02:03:13.696Z,3.50
2019-02-27T02:05:44.165Z,3.70
2019-02-27T02:08:14.701Z,3.40
2019-02-27T02:10:44.943Z,3.63
2019-02-27T02:13:18.579Z,3.50
2019-02-27T02:16:16.037Z,4.07
2019-02-27T02:18:57.594Z,3.50
2019-02-27T02:21:36.903Z,3.10
2019-02-27T02:24:10.166Z,4.23
2019-02-27T02:26:55.279Z,3.60
2019-02-27T02:29:52.924Z,3.70
2019-02-27T02:32:23.991Z,3.70
2019-02-27T02:34:57.243Z,3.80
2019-02-27T02:37:37.768Z,4.40
2019-02-27T02:40:31.114Z,3.80
2019-02-27T02:43:07.940Z,4.20
2019-02-27T02:45:53.131Z,4.37
2019-02-27T02:48:31.017Z,4.37
2019-02-27T02:51:34.856Z,3.93
2019-02-27T02:54:17.068Z,3.87
2019-02-27T02:57:14.398Z,4.00
2019-02-27T03:00:07.347Z,3.90
2019-02-27T03:03:01.938Z,3.60
2019-02-27T03:05:38.492Z,4.23
2019-02-27T03:08:11.780Z,3.97
2019-02-27T03:10:47.861Z,4.07
2019-02-27T03:13:27.056Z,4.23
2019-02-27T03:16:12.307Z,4.30
2019-02-27T03:18:54.156Z,4.30
2019-02-27T03:21:30.131Z,4.00
2019-02-27T03:24:28.924Z,4.03
2019-02-27T03:27:11.192Z,4.60
2019-02-27T03:29:56.647Z,3.83
2019-02-27T03:32:41.231Z,3.83
2019-02-27T03:35:16.448Z,4.37
2019-02-27T03:37:58.892Z,4.57
2019-02-27T03:40:45.003Z,4.30
2019-02-27T03:43:25.186Z,4.30
2019-02-27T03:46:03.083Z,4.33
2019-02-27T03:49:05.163Z,4.13
2019-02-27T03:51:47.403Z,4.70
2019-02-27T03:54:35.859Z,4.03
2019-02-27T03:57:09.398Z,4.20
2019-02-27T03:59:59.200Z,4.23
2019-02-27T04:02:51.972Z,4.50
2019-02-27T04:05:31.262Z,4.27
2019-02-27T04:08:43.337Z,3.57
2019-02-27T04:11:08.701Z,4.13
2019-02-27T04:13:39.250Z,3.77
2019-02-27T04:16:09.742Z,3.77
2019-02-27T04:18:38.854Z,3.50
2019-02-27T04:21:09.486Z,3.17
2019-02-27T04:23:39.716Z,4.23
2019-02-27T04:26:09.923Z,3.90
2019-02-27T04:28:40.163Z,3.80
2019-02-27T04:31:10.339Z,4.53
2019-02-27T04:33:40.566Z,4.80
2019-02-27T04:36:12.710Z,4.70
2019-02-27T04:38:42.925Z,4.87
2019-02-27T04:41:13.110Z,4.87
2019-02-27T04:43:43.582Z,4.13
2019-02-27T04:46:14.123Z,4.10
2019-02-27T04:48:44.340Z,4.80
2019-02-27T04:51:17.188Z,4.80
2019-02-27T04:53:46.778Z,5.20
2019-02-27T04:56:16.979Z,4.50
2019-02-27T04:58:47.229Z,4.90
2019-02-27T05:01:17.723Z,4.97
2019-02-27T05:03:48.243Z,5.03
2019-02-27T05:06:18.771Z,5.17
2019-02-27T05:08:49.317Z,4.93
2019-02-27T05:11:19.537Z,5.10
2019-02-27T05:13:54.097Z,4.80
2019-02-27T05:16:22.233Z,4.63
2019-02-27T05:18:52.466Z,5.67
2019-02-27T05:21:22.646Z,4.87
2019-02-27T05:23:52.880Z,4.93
2019-02-27T05:26:27.087Z,4.70
2019-02-27T05:28:54.978Z,5.60
2019-02-27T05:31:25.204Z,5.27
2019-02-27T05:33:55.394Z,5.87
2019-02-27T05:36:25.610Z,5.27
2019-02-27T05:38:55.805Z,5.47
2019-02-27T05:41:26.327Z,5.33
2019-02-27T05:43:56.859Z,5.50
2019-02-27T05:46:27.078Z,4.87
2019-02-27T05:48:57.284Z,4.47
2019-02-27T05:51:27.503Z,4.73
2019-02-27T05:53:58.499Z,5.10
2019-02-27T05:56:29.354Z,5.13
2019-02-27T05:58:59.855Z,5.07
2019-02-27T06:01:30.073Z,4.93
2019-02-27T06:04:00.612Z,5.23
2019-02-27T06:06:30.870Z,5.60
2019-02-27T06:09:01.057Z,5.20
2019-02-27T06:11:33.114Z,5.07
2019-02-27T06:14:03.457Z,5.23
2019-02-27T06:16:37.098Z,5.37
2019-02-27T06:19:05.574Z,5.43
2019-02-27T06:21:35.792Z,6.57
2019-02-27T06:24:06.031Z,6.13
2019-02-27T06:26:36.222Z,6.80
2019-02-27T06:29:06.745Z,6.73
2019-02-27T06:31:39.425Z,6.00
2019-02-27T06:34:09.564Z,6.37
2019-02-27T06:36:42.770Z,5.90
2019-02-27T06:39:12.256Z,6.63
2019-02-27T06:41:47.446Z,6.30
2019-02-27T06:44:19.025Z,6.10
2019-02-27T06:46:51.107Z,6.53
2019-02-27T06:49:21.373Z,6.40
2019-02-27T06:51:51.877Z,6.17
2019-02-27T06:54:22.405Z,6.10
2019-02-27T06:56:52.615Z,5.40
2019-02-27T06:59:25.247Z,6.13
2019-02-27T07:01:55.028Z,5.87
2019-02-27T07:04:26.840Z,6.10
2019-02-27T07:06:57.209Z,5.57
2019-02-27T07:09:27.756Z,5.60
2019-02-27T07:11:57.985Z,6.03
2019-02-27T07:14:28.609Z,6.73
2019-02-27T07:16:59.151Z,6.80
2019-02-27T07:19:29.354Z,7.20
2019-02-27T07:21:59.550Z,6.90
2019-02-27T07:24:30.616Z,7.93
2019-02-27T07:27:01.931Z,7.50
2019-02-27T07:29:32.415Z,7.70
2019-02-27T07:32:02.957Z,7.63
2019-02-27T07:34:33.242Z,7.17
2019-02-27T07:37:06.645Z,6.77
2019-02-27T07:39:36.824Z,7.20
2019-02-27T07:42:07.331Z,7.00
2019-02-27T07:44:37.526Z,6.77
2019-02-27T07:47:07.759Z,7.17
2019-02-27T07:49:38.217Z,7.43
2019-02-27T07:52:08.426Z,7.10
2019-02-27T07:54:38.858Z,7.97
2019-02-27T07:57:09.073Z,7.57
2019-02-27T07:59:39.522Z,6.93
2019-02-27T08:02:09.755Z,7.57
2019-02-27T08:04:40.275Z,7.83
2019-02-27T08:07:12.424Z,7.77
2019-02-27T08:09:42.426Z,7.73
2019-02-27T08:12:12.676Z,7.17
2019-02-27T08:14:43.140Z,7.70
2019-02-27T08:17:17.563Z,7.47
2019-02-27T08:19:46.099Z,7.63
2019-02-27T08:22:16.451Z,7.77
2019-02-27T08:24:46.661Z,8.07
2019-02-27T08:27:17.210Z,7.33
2019-02-27T08:29:47.746Z,7.43
2019-02-27T08:32:17.930Z,7.43
2019-02-27T08:34:48.159Z,7.73
2019-02-27T08:37:20.286Z,7.80
2019-02-27T08:39:50.678Z,7.40
2019-02-27T08:42:21.132Z,8.27
2019-02-27T08:44:51.341Z,7.43
2019-02-27T08:47:21.547Z,7.17
2019-02-27T08:49:51.761Z,8.13
2019-02-27T08:52:22.234Z,7.37
2019-02-27T08:54:52.458Z,8.20
2019-02-27T08:57:22.990Z,7.93
2019-02-27T08:59:53.527Z,8.30
2019-02-27T09:02:24.244Z,7.50
2019-02-27T09:04:54.535Z,8.17
2019-02-27T09:07:24.741Z,7.43
2019-02-27T09:09:55.264Z,7.47
2019-02-27T09:12:25.870Z,8.40
2019-02-27T09:14:56.411Z,7.70
2019-02-27T09:17:27.367Z,7.80
2019-02-27T09:19:58.216Z,7.87
2019-02-27T09:22:28.411Z,8.70
2019-02-27T09:24:59.205Z,7.97
2019-02-27T09:27:32.924Z,8.33
2019-02-27T09:30:02.802Z,7.77
2019-02-27T09:32:33.779Z,8.13
2019-02-27T09:35:05.112Z,8.28
2019-02-27T09:37:35.885Z,7.15
2019-02-27T09:40:15.316Z,7.62
2019-02-27T09:42:46.086Z,6.78
2019-02-27T09:45:22.929Z,7.25
2019-02-27T09:47:54.207Z,6.92
2019-02-27T09:50:47.836Z,7.33
2019-02-27T09:53:15.327Z,7.00
2019-02-27T09:55:46.136Z,7.10
2019-02-27T09:58:16.919Z,6.83
2019-02-27T10:00:53.576Z,7.97
2019-02-27T10:03:24.355Z,6.78
2019-02-27T10:05:55.192Z,7.15
2019-02-27T10:08:26.295Z,6.58
2019-02-27T10:10:57.441Z,6.72
2019-02-27T10:13:28.219Z,7.50
2019-02-27T10:16:01.390Z,6.60
2019-02-27T10:18:31.825Z,6.70
2019-02-27T10:21:02.959Z,6.35
2019-02-27T10:23:33.742Z,7.20
2019-02-27T10:26:04.922Z,6.95
2019-02-27T10:28:39.741Z,6.67
2019-02-27T10:31:08.864Z,6.30
2019-02-27T10:33:39.661Z,5.95
2019-02-27T10:36:10.842Z,7.05
2019-02-27T10:38:42.007Z,6.83
2019-02-27T10:41:13.046Z,7.00
2019-02-27T10:43:44.179Z,6.47
2019-02-27T10:46:15.243Z,5.95
2019-02-27T10:48:47.005Z,6.12
2019-02-27T10:51:18.458Z,6.62
2019-02-27T10:53:50.384Z,5.97
2019-02-27T10:56:21.611Z,5.78
2019-02-27T10:58:53.747Z,6.05
2019-02-27T11:01:24.522Z,6.95
2019-02-27T11:03:55.349Z,5.95
2019-02-27T11:06:33.775Z,6.37
2019-02-27T11:08:58.915Z,6.03
2019-02-27T11:11:29.762Z,5.70
2019-02-27T11:14:00.907Z,5.78
2019-02-27T11:16:31.944Z,6.30
2019-02-27T11:19:02.725Z,6.33
2019-02-27T11:21:33.827Z,6.25
2019-02-27T11:24:04.877Z,6.15
2019-02-27T11:26:35.650Z,5.83
2019-02-27T11:29:06.556Z,5.90
2019-02-27T11:31:37.595Z,6.62
2019-02-27T11:34:10.530Z,5.92
2019-02-27T11:36:41.349Z,6.20
2019-02-27T11:39:12.609Z,5.60
2019-02-27T11:41:46.085Z,6.03
2019-02-27T11:44:15.912Z,6.17
2019-02-27T11:46:58.212Z,6.08
2019-02-27T11:49:19.522Z,5.62
2019-02-27T11:51:53.097Z,5.35
2019-02-27T11:54:23.067Z,6.25
2019-02-27T11:56:56.090Z,5.75
2019-02-27T11:59:26.353Z,5.12
2019-02-27T12:01:57.147Z,5.62
2019-02-27T12:04:28.222Z,5.70
2019-02-27T12:06:59.014Z,5.30
2019-02-27T12:09:29.797Z,5.42
2019-02-27T12:12:00.611Z,5.72
2019-02-27T12:14:31.678Z,5.95
2019-02-27T12:17:02.850Z,5.97
2019-02-27T12:19:33.626Z,6.15
2019-02-27T12:22:04.498Z,5.47
2019-02-27T12:24:35.267Z,4.65
2019-02-27T12:27:07.272Z,5.65
2019-02-27T12:29:38.460Z,6.37
2019-02-27T12:32:09.611Z,5.53
2019-02-27T12:34:40.649Z,5.72
2019-02-27T12:37:19.231Z,5.45
2019-02-27T12:39:44.281Z,5.08
2019-02-27T12:42:15.048Z,4.80
2019-02-27T12:44:45.828Z,4.92
2019-02-27T12:47:16.891Z,4.92
2019-02-27T12:49:47.667Z,5.62
2019-02-27T12:52:18.461Z,5.35
2019-02-27T12:54:49.235Z,4.45
2019-02-27T12:57:19.996Z,4.92
2019-02-27T12:59:51.085Z,5.42
2019-02-27T13:02:24.428Z,5.00
2019-02-27T13:04:54.345Z,4.67
2019-02-27T13:07:25.442Z,5.65
2019-02-27T13:09:58.485Z,4.05
2019-02-27T13:12:29.076Z,4.58
2019-02-27T13:14:59.843Z,4.70
2019-02-27T13:17:30.945Z,4.70
2019-02-27T13:20:03.081Z,4.97
2019-02-27T13:22:34.150Z,3.58
2019-02-27T13:25:06.409Z,4.97
2019-02-27T13:27:37.225Z,4.60
2019-02-27T13:30:14.094Z,4.47
2019-02-27T13:32:45.189Z,4.60
2019-02-27T13:35:16.463Z,4.05
2019-02-27T13:37:47.590Z,4.10
2019-02-27T13:40:24.466Z,4.25
2019-02-27T13:42:55.334Z,4.12
2019-02-27T13:45:28.510Z,3.40
2019-02-27T13:48:04.918Z,4.03
2019-02-27T13:50:32.118Z,3.40
2019-02-27T13:53:02.917Z,3.47
2019-02-27T13:55:33.727Z,3.52
2019-02-27T13:58:04.529Z,3.80
2019-02-27T14:00:37.261Z,3.60
2019-02-27T14:03:12.171Z,3.37
2019-02-27T14:05:40.960Z,3.20
2019-02-27T14:08:12.207Z,2.90
2019-02-27T14:10:43.054Z,2.98
2019-02-27T14:13:13.860Z,3.02
2019-02-27T14:15:44.619Z,3.00
2019-02-27T14:18:16.176Z,3.12
2019-02-27T14:20:47.587Z,2.92
2019-02-27T14:23:18.346Z,2.95
2019-02-27T14:25:49.393Z,2.70
2019-02-27T14:28:21.034Z,3.47
2019-02-27T14:30:53.530Z,2.90
2019-02-27T14:33:24.286Z,2.50
2019-02-27T14:35:55.148Z,2.95
2019-02-27T14:38:25.910Z,3.40
2019-02-27T14:40:57.003Z,3.40
2019-02-27T14:43:27.971Z,3.25
2019-02-27T14:45:58.887Z,3.92
2019-02-27T14:48:29.654Z,3.92
2019-02-27T14:51:00.449Z,3.70
2019-02-27T14:53:31.223Z,3.98
2019-02-27T14:56:02.026Z,3.87
2019-02-27T14:58:33.070Z,3.77
2019-02-27T15:01:05.105Z,4.05
2019-02-27T15:03:36.186Z,4.17
2019-02-27T15:06:07.321Z,3.77
2019-02-27T15:08:38.091Z,3.65
2019-02-27T15:11:08.904Z,4.03
2019-02-27T15:13:39.666Z,4.05
2019-02-27T15:16:10.787Z,4.03
2019-02-27T15:18:41.841Z,3.60
2019-02-27T15:21:13.231Z,4.12
2019-02-27T15:23:44.948Z,3.80
2019-02-27T15:26:16.459Z,3.60
2019-02-27T15:28:48.157Z,4.37
2019-02-27T15:31:21.456Z,3.65
2019-02-27T15:33:51.401Z,4.15
2019-02-27T15:36:22.218Z,3.75
2019-02-27T15:38:53.015Z,3.72
2019-02-27T15:41:24.027Z,3.87
2019-02-27T15:44:00.234Z,3.60
2019-02-27T15:46:27.290Z,3.30
2019-02-27T15:48:58.058Z,3.95
2019-02-27T15:51:32.455Z,3.70
2019-02-27T15:54:01.459Z,3.92
2019-02-27T15:56:32.321Z,2.90
2019-02-27T15:59:07.335Z,3.50
2019-02-27T16:01:36.127Z,3.00
2019-02-27T16:04:07.157Z,3.70
2019-02-27T16:06:39.732Z,3.27
2019-02-27T16:09:10.995Z,3.77
2019-02-27T16:11:41.790Z,4.05
2019-02-27T16:14:12.563Z,3.80
2019-02-27T16:16:43.610Z,3.37
2019-02-27T16:19:14.432Z,3.40
2019-02-27T16:21:45.498Z,3.12
2019-02-27T16:24:16.539Z,3.25
2019-02-27T16:26:47.297Z,3.12
2019-02-27T16:29:19.940Z,3.30
2019-02-27T16:31:50.607Z,3.12
2019-02-27T16:34:21.390Z,3.77
2019-02-27T16:36:52.162Z,3.72
2019-02-27T16:39:22.960Z,3.47
2019-02-27T16:41:54.071Z,3.40
2019-02-27T16:44:24.868Z,3.22
2019-02-27T16:46:55.635Z,3.10
2019-02-27T16:49:26.450Z,3.12
2019-02-27T16:51:57.222Z,3.02
2019-02-27T16:54:28.024Z,3.70
2019-02-27T16:56:58.795Z,3.65
2019-02-27T16:59:29.822Z,2.72
2019-02-27T17:02:03.727Z,2.95
2019-02-27T17:04:34.258Z,2.65
2019-02-27T17:07:05.731Z,3.60
2019-02-27T17:09:36.868Z,3.00
2019-02-27T17:12:07.980Z,2.77
2019-02-27T17:14:39.424Z,3.17
2019-02-27T17:17:10.714Z,3.08
2019-02-27T17:19:41.515Z,3.58
2019-02-27T17:22:12.270Z,3.00
2019-02-27T17:24:43.054Z,3.58
2019-02-27T17:27:16.370Z,3.30
2019-02-27T17:29:46.650Z,3.20
2019-02-27T17:32:17.687Z,3.45
2019-02-27T17:34:48.785Z,3.33
2019-02-27T17:37:19.885Z,3.15
2019-02-27T17:39:50.682Z,3.37
2019-02-27T17:42:21.446Z,3.15
2019-02-27T17:44:52.283Z,3.17
2019-02-27T17:47:23.064Z,3.10
2019-02-27T17:49:53.822Z,3.00
2019-02-27T17:52:24.594Z,3.00
2019-02-27T17:54:55.650Z,2.87
2019-02-27T17:57:26.413Z,2.80
2019-02-27T17:59:57.198Z,2.52
2019-02-27T18:02:30.128Z,3.00
2019-02-27T18:05:00.438Z,3.05
2019-02-27T18:07:34.392Z,3.10
2019-02-27T18:10:06.536Z,3.10
2019-02-27T18:12:37.294Z,2.92
2019-02-27T18:15:14.237Z,3.40
2019-02-27T18:17:45.390Z,3.33
2019-02-27T18:20:16.527Z,2.70
2019-02-27T18:22:49.377Z,2.47
2019-02-27T18:25:20.424Z,2.90
2019-02-27T18:27:51.498Z,2.70
2019-02-27T18:30:23.860Z,2.45
2019-02-27T18:32:54.617Z,2.40
2019-02-27T18:35:28.765Z,2.90
2019-02-27T18:37:57.860Z,2.70
2019-02-27T18:40:28.726Z,2.90
2019-02-27T18:42:59.505Z,2.92
2019-02-27T18:45:30.385Z,2.67
2019-02-27T18:48:01.146Z,2.85
2019-02-27T18:50:31.946Z,3.33
2019-02-27T18:53:03.389Z,2.85
2019-02-27T18:55:34.525Z,3.10
2019-02-27T18:58:05.684Z,3.00
2019-02-27T19:00:36.925Z,3.50
2019-02-27T19:03:25.901Z,3.83
2019-02-27T19:05:57.333Z,3.35
2019-02-27T19:08:28.706Z,3.42
2019-02-27T19:10:59.735Z,3.92
2019-02-27T19:13:31.785Z,4.25
2019-02-27T19:16:03.147Z,5.20
2019-02-27T19:18:35.120Z,4.22
2019-02-27T19:21:06.303Z,4.30
2019-02-27T19:23:37.104Z,4.05
2019-02-27T19:26:09.364Z,4.40
2019-02-27T19:28:40.974Z,3.98
2019-02-27T19:31:16.381Z,3.55
2019-02-27T19:33:44.696Z,3.30
2019-02-27T19:36:19.258Z,3.50
2019-02-27T19:38:48.402Z,2.95
2019-02-27T19:41:19.619Z,3.17
2019-02-27T19:43:54.814Z,3.90
2019-02-27T19:46:23.226Z,3.90
2019-02-27T19:48:54.023Z,3.40
2019-02-27T19:51:24.773Z,3.70
2019-02-27T19:53:55.633Z,3.95
2019-02-27T19:56:26.415Z,4.12
2019-02-27T19:58:57.184Z,4.35
2019-02-27T20:01:27.987Z,5.05
2019-02-27T20:03:58.891Z,4.87
2019-02-27T20:06:29.981Z,4.62
2019-02-27T20:09:00.853Z,4.85
2019-02-27T20:11:31.842Z,5.12
2019-02-27T20:14:03.233Z,4.78
2019-02-27T20:16:34.531Z,4.83
2019-02-27T20:19:05.358Z,4.85
2019-02-27T20:21:36.223Z,4.75
2019-02-27T20:24:14.270Z,4.87
2019-02-27T20:26:44.509Z,5.00
2019-02-27T20:29:12.206Z,4.62
2019-02-27T20:31:43.173Z,4.62
2019-02-27T20:34:13.969Z,4.67
2019-02-27T20:36:44.813Z,4.03
2019-02-27T20:39:15.896Z,4.03
2019-02-27T20:41:47.022Z,4.30
2019-02-27T20:44:17.811Z,4.65
2019-02-27T20:46:49.463Z,5.28
2019-02-27T20:49:21.371Z,5.37
2019-02-27T20:51:52.130Z,4.80
2019-02-27T20:54:22.970Z,5.37
2019-02-27T20:56:55.754Z,4.17
2019-02-27T20:59:26.508Z,3.98
2019-02-27T21:01:57.362Z,4.53
2019-02-27T21:04:28.162Z,4.20
2019-02-27T21:06:58.922Z,4.70
2019-02-27T21:09:29.710Z,4.55
2019-02-27T21:12:03.278Z,4.30
2019-02-27T21:14:33.258Z,4.47
2019-02-27T21:17:04.489Z,3.95
2019-02-27T21:19:37.214Z,4.35
2019-02-27T21:22:08.066Z,3.70
2019-02-27T21:24:40.567Z,4.05
2019-02-27T21:27:11.619Z,3.87
2019-02-27T21:29:43.378Z,4.47
2019-02-27T21:32:15.239Z,3.95
2019-02-27T21:34:46.041Z,4.17
2019-02-27T21:37:17.173Z,3.87
2019-02-27T21:39:47.963Z,4.58
2019-02-27T21:42:19.505Z,5.30
2019-02-27T21:44:50.489Z,5.70
2019-02-27T21:47:21.240Z,5.03
2019-02-27T21:49:52.373Z,5.75
2019-02-27T21:52:23.513Z,5.53
2019-02-27T21:54:54.353Z,5.75
2019-02-27T21:57:25.615Z,6.03
2019-02-27T21:59:57.082Z,5.58
2019-02-27T22:02:30.071Z,5.20
2019-02-27T22:05:01.000Z,5.78
2019-02-27T22:07:33.258Z,5.55
2019-02-27T22:10:07.678Z,5.40
2019-02-27T22:12:38.470Z,5.35
2019-02-27T22:15:22.961Z,5.25
2019-02-27T22:17:54.009Z,5.55
2019-02-27T22:20:26.049Z,5.25
2019-02-27T22:22:57.745Z,5.53
2019-02-27T22:25:31.134Z,4.92
2019-02-27T22:28:00.982Z,5.53
2019-02-27T22:30:32.515Z,5.78
2019-02-27T22:33:03.846Z,5.75
2019-02-27T22:35:37.952Z,6.15
2019-02-27T22:38:07.700Z,6.22
2019-02-27T22:40:39.185Z,6.72
2019-02-27T22:43:10.134Z,6.62
2019-02-27T22:45:44.000Z,6.30
2019-02-27T22:48:13.699Z,7.10
2019-02-27T22:50:44.465Z,6.58
2019-02-27T22:53:15.579Z,6.83
2019-02-27T22:55:46.619Z,7.58
2019-02-27T22:58:19.565Z,6.58
2019-02-27T23:00:57.843Z,6.10
2019-02-27T23:03:36.922Z,5.13
2019-02-27T23:06:12.339Z,5.28
2019-02-27T23:08:41.706Z,5.40
2019-02-27T23:11:12.246Z,4.30
2019-02-27T23:13:48.258Z,5.20
2019-02-27T23:16:20.306Z,5.27
2019-02-27T23:18:50.519Z,5.57
2019-02-27T23:21:20.734Z,5.33
2019-02-27T23:23:51.342Z,5.23
2019-02-27T23:26:21.582Z,5.43
2019-02-27T23:28:51.792Z,5.07
2019-02-27T23:31:23.466Z,4.83
2019-02-27T23:33:53.901Z,5.20
2019-02-27T23:36:24.179Z,5.47
2019-02-27T23:38:54.624Z,5.00
2019-02-27T23:41:25.167Z,5.77
2019-02-27T23:43:55.422Z,5.43
2019-02-27T23:46:25.647Z,5.20
2019-02-27T23:48:56.153Z,5.57
2019-02-27T23:51:26.675Z,5.30
2019-02-27T23:53:58.612Z,5.30
2019-02-27T23:56:28.801Z,5.80
2019-02-27T23:59:02.304Z,4.63
